createdAt,value
2016-12-06T00:00:37.212Z,0
2016-12-06T00:01:37.283Z,0
2016-12-06T00:02:37.305Z,0
2016-12-06T00:03:37.373Z,0
2016-12-06T00:04:37.448Z,0
2016-12-06T00:05:37.814Z,0
2016-12-06T00:06:37.550Z,0
2016-12-06T00:07:37.610Z,0
2016-12-06T00:08:37.663Z,0
2016-12-06T00:09:37.700Z,0
2016-12-06T00:10:37.750Z,0
2016-12-06T00:11:37.843Z,0
2016-12-06T00:12:37.871Z,0
2016-12-06T00:13:37.950Z,0
2016-12-06T00:14:37.995Z,0
2016-12-06T00:15:38.034Z,0
2016-12-06T00:16:38.120Z,0
2016-12-06T00:17:38.182Z,0
2016-12-06T00:18:38.206Z,0
2016-12-06T00:19:38.290Z,0
2016-12-06T00:20:38.326Z,0
2016-12-06T00:21:38.370Z,0
2016-12-06T00:22:38.444Z,0
2016-12-06T00:23:38.496Z,0
2016-12-06T00:24:38.549Z,0
2016-12-06T00:25:38.607Z,0
2016-12-06T00:26:38.651Z,0
2016-12-06T00:27:38.742Z,0
2016-12-06T00:28:38.778Z,0
2016-12-06T00:29:38.844Z,0
2016-12-06T00:30:38.894Z,0
2016-12-06T00:31:38.956Z,0
2016-12-06T00:32:38.991Z,0
2016-12-06T00:33:39.064Z,0
2016-12-06T00:34:39.094Z,0
2016-12-06T00:35:39.221Z,0
2016-12-06T00:36:39.215Z,0
2016-12-06T00:37:39.295Z,0
2016-12-06T00:38:39.330Z,0
2016-12-06T00:39:39.386Z,0
2016-12-06T00:40:39.449Z,0
2016-12-06T00:41:39.511Z,0
2016-12-06T00:42:39.581Z,0
2016-12-06T00:43:39.979Z,0
2016-12-06T00:44:39.670Z,0
2016-12-06T00:45:39.725Z,0
2016-12-06T00:46:39.769Z,0
2016-12-06T00:47:39.830Z,0
2016-12-06T00:48:39.911Z,0
2016-12-06T00:49:39.937Z,0
2016-12-06T00:50:39.993Z,0
2016-12-06T00:51:40.079Z,0
2016-12-06T00:52:40.103Z,0
2016-12-06T00:53:40.173Z,0
2016-12-06T00:54:40.234Z,0
2016-12-06T00:55:40.292Z,0
2016-12-06T00:56:40.344Z,0
2016-12-06T00:57:40.421Z,0
2016-12-06T00:58:40.453Z,0
2016-12-06T00:59:40.501Z,0
2016-12-06T01:00:40.557Z,0
2016-12-06T01:01:40.628Z,0
2016-12-06T01:02:40.666Z,0
2016-12-06T01:03:40.745Z,0
2016-12-06T01:04:40.809Z,0
2016-12-06T01:05:40.856Z,0
2016-12-06T01:06:40.891Z,0
2016-12-06T01:07:40.984Z,0
2016-12-06T01:08:41.004Z,0
2016-12-06T01:09:41.080Z,0
2016-12-06T01:10:41.136Z,0
2016-12-06T01:11:41.206Z,0
2016-12-06T01:12:41.249Z,0
2016-12-06T01:13:41.305Z,0
2016-12-06T01:14:41.366Z,0
2016-12-06T01:15:41.403Z,0
2016-12-06T01:16:41.465Z,0
2016-12-06T01:17:41.528Z,0
2016-12-06T01:18:41.576Z,0
2016-12-06T01:19:41.649Z,0
2016-12-06T01:20:41.686Z,0
2016-12-06T01:21:41.750Z,0
2016-12-06T01:22:41.802Z,0
2016-12-06T01:23:41.878Z,0
2016-12-06T01:24:41.920Z,0
2016-12-06T01:25:41.974Z,0
2016-12-06T01:26:42.018Z,0
2016-12-06T01:27:42.079Z,0
2016-12-06T01:28:42.122Z,0
2016-12-06T01:29:42.180Z,0
2016-12-06T01:30:42.292Z,0
2016-12-06T01:31:42.304Z,0
2016-12-06T01:32:42.371Z,0
2016-12-06T01:33:42.429Z,0
2016-12-06T01:34:42.462Z,0
2016-12-06T01:35:42.551Z,0
2016-12-06T01:36:42.603Z,0
2016-12-06T01:37:42.650Z,0
2016-12-06T01:38:42.712Z,0
2016-12-06T01:39:42.770Z,0
2016-12-06T01:40:42.804Z,0
2016-12-06T01:41:42.861Z,0
2016-12-06T01:42:42.930Z,0
2016-12-06T01:43:42.984Z,0
2016-12-06T01:44:43.053Z,0
2016-12-06T01:45:43.111Z,0
2016-12-06T01:46:43.134Z,0
2016-12-06T01:47:43.209Z,0
2016-12-06T01:48:43.260Z,0
2016-12-06T01:49:43.322Z,0
2016-12-06T01:50:43.387Z,0
2016-12-06T01:51:43.433Z,0
2016-12-06T01:52:43.501Z,0
2016-12-06T01:53:43.525Z,0
2016-12-06T01:54:43.581Z,0
2016-12-06T01:55:43.659Z,0
2016-12-06T01:56:43.716Z,0
2016-12-06T01:57:43.773Z,0
2016-12-06T01:58:43.820Z,0
2016-12-06T01:59:43.875Z,0
2016-12-06T02:00:43.932Z,0
2016-12-06T02:01:43.981Z,0
2016-12-06T02:02:44.041Z,0
2016-12-06T02:03:44.099Z,0
2016-12-06T02:04:44.163Z,0
2016-12-06T02:05:44.236Z,0
2016-12-06T02:06:44.253Z,0
2016-12-06T02:07:44.332Z,0
2016-12-06T02:08:44.388Z,0
2016-12-06T02:09:44.753Z,0
2016-12-06T02:10:44.484Z,0
2016-12-06T02:11:44.563Z,0
2016-12-06T02:12:44.598Z,0
2016-12-06T02:13:44.660Z,0
2016-12-06T02:14:44.710Z,0
2016-12-06T02:15:44.767Z,0
2016-12-06T02:16:44.847Z,0
2016-12-06T02:17:44.870Z,0
2016-12-06T02:18:44.948Z,0
2016-12-06T02:19:44.998Z,0
2016-12-06T02:20:45.066Z,0
2016-12-06T02:21:45.125Z,0
2016-12-06T02:22:45.165Z,0
2016-12-06T02:23:45.236Z,0
2016-12-06T02:24:45.299Z,0
2016-12-06T02:25:45.337Z,0
2016-12-06T02:26:45.396Z,0
2016-12-06T02:27:45.431Z,0
2016-12-06T02:28:45.823Z,0
2016-12-06T02:29:45.666Z,0
2016-12-06T02:30:45.601Z,0
2016-12-06T02:31:45.671Z,0
2016-12-06T02:32:45.751Z,0
2016-12-06T02:33:45.782Z,0
2016-12-06T02:34:45.834Z,0
2016-12-06T02:35:45.903Z,0
2016-12-06T02:36:45.949Z,0
2016-12-06T02:37:46.003Z,0
2016-12-06T02:38:46.076Z,0
2016-12-06T02:39:46.102Z,0
2016-12-06T02:40:46.187Z,0
2016-12-06T02:41:46.236Z,0
2016-12-06T02:42:46.294Z,0
2016-12-06T02:43:46.340Z,0
2016-12-06T02:44:46.412Z,0
2016-12-06T02:45:46.450Z,0
2016-12-06T02:46:46.516Z,0
2016-12-06T02:47:46.562Z,0
2016-12-06T02:48:46.627Z,0
2016-12-06T02:49:46.669Z,0
2016-12-06T02:50:46.749Z,0
2016-12-06T02:51:46.782Z,0
2016-12-06T02:52:46.845Z,0
2016-12-06T02:53:46.906Z,0
2016-12-06T02:54:46.969Z,0
2016-12-06T02:55:47.014Z,0
2016-12-06T02:56:47.072Z,0
2016-12-06T02:57:47.126Z,0
2016-12-06T02:58:47.186Z,0
2016-12-06T02:59:47.221Z,0
2016-12-06T03:00:47.277Z,0
2016-12-06T03:01:47.347Z,0
2016-12-06T03:02:47.410Z,0
2016-12-06T03:03:47.511Z,0
2016-12-06T03:04:47.531Z,0
2016-12-06T03:05:47.560Z,0
2016-12-06T03:06:47.621Z,0
2016-12-06T03:07:47.706Z,0
2016-12-06T03:08:47.748Z,0
2016-12-06T03:09:47.797Z,0
2016-12-06T03:10:47.862Z,0
2016-12-06T03:11:47.916Z,0
2016-12-06T03:12:47.951Z,0
2016-12-06T03:13:48.017Z,0
2016-12-06T03:14:48.077Z,0
2016-12-06T03:15:48.149Z,0
2016-12-06T03:16:48.196Z,0
2016-12-06T03:17:48.235Z,0
2016-12-06T03:18:48.307Z,0
2016-12-06T03:19:48.372Z,0
2016-12-06T03:20:48.407Z,0
2016-12-06T03:21:48.476Z,0
2016-12-06T03:22:48.533Z,0
2016-12-06T03:23:48.593Z,0
2016-12-06T03:24:48.648Z,0
2016-12-06T03:25:48.677Z,0
2016-12-06T03:26:48.748Z,0
2016-12-06T03:27:48.804Z,0
2016-12-06T03:28:48.862Z,0
2016-12-06T03:29:48.904Z,0
2016-12-06T03:30:48.990Z,0
2016-12-06T03:31:49.014Z,0
2016-12-06T03:32:49.107Z,0
2016-12-06T03:33:49.128Z,0
2016-12-06T03:34:49.222Z,0
2016-12-06T03:35:49.257Z,0
2016-12-06T03:36:49.304Z,0
2016-12-06T03:37:49.367Z,0
2016-12-06T03:38:49.407Z,0
2016-12-06T03:39:49.475Z,0
2016-12-06T03:40:49.539Z,0
2016-12-06T03:41:49.575Z,0
2016-12-06T03:42:49.644Z,0
2016-12-06T03:43:49.692Z,0
2016-12-06T03:44:49.756Z,0
2016-12-06T03:45:49.847Z,0
2016-12-06T03:46:49.876Z,0
2016-12-06T03:47:49.929Z,0
2016-12-06T03:48:49.984Z,0
2016-12-06T03:49:50.049Z,0
2016-12-06T03:50:50.092Z,0
2016-12-06T03:51:50.146Z,0
2016-12-06T03:52:50.208Z,0
2016-12-06T03:53:50.245Z,0
2016-12-06T03:54:50.305Z,0
2016-12-06T03:55:50.392Z,0
2016-12-06T03:56:50.467Z,0
2016-12-06T03:57:50.489Z,0
2016-12-06T03:58:50.546Z,0
2016-12-06T03:59:50.615Z,0
2016-12-06T04:00:50.651Z,0
2016-12-06T04:01:50.709Z,0
2016-12-06T04:02:50.764Z,0
2016-12-06T04:03:50.827Z,0
2016-12-06T04:04:50.887Z,0
2016-12-06T04:05:50.944Z,0
2016-12-06T04:06:50.989Z,0
2016-12-06T04:07:51.047Z,0
2016-12-06T04:08:51.088Z,0
2016-12-06T04:09:51.162Z,0
2016-12-06T04:10:51.219Z,0
2016-12-06T04:11:51.292Z,0
2016-12-06T04:12:51.340Z,0
2016-12-06T04:13:51.402Z,0
2016-12-06T04:14:51.431Z,0
2016-12-06T04:15:51.511Z,0
2016-12-06T04:16:51.552Z,0
2016-12-06T04:17:51.613Z,0
2016-12-06T04:18:51.657Z,0
2016-12-06T04:19:51.725Z,0
2016-12-06T04:20:51.781Z,0
2016-12-06T04:21:51.826Z,0
2016-12-06T04:22:51.885Z,0
2016-12-06T04:23:51.951Z,0
2016-12-06T04:24:52.022Z,0
2016-12-06T04:25:52.076Z,0
2016-12-06T04:26:52.120Z,0
2016-12-06T04:27:52.171Z,0
2016-12-06T04:28:52.230Z,0
2016-12-06T04:29:52.294Z,0
2016-12-06T04:30:52.338Z,0
2016-12-06T04:31:52.403Z,0
2016-12-06T04:32:52.457Z,0
2016-12-06T04:33:52.509Z,0
2016-12-06T04:34:52.553Z,0
2016-12-06T04:35:52.613Z,0
2016-12-06T04:36:52.671Z,0
2016-12-06T04:37:52.738Z,0
2016-12-06T04:38:52.793Z,0
2016-12-06T04:39:52.841Z,0
2016-12-06T04:40:52.891Z,0
2016-12-06T04:41:52.972Z,0
2016-12-06T04:42:53.017Z,0
2016-12-06T04:43:53.063Z,0
2016-12-06T04:44:53.105Z,0
2016-12-06T04:45:53.162Z,0
2016-12-06T04:46:53.230Z,0
2016-12-06T04:47:53.286Z,0
2016-12-06T04:48:53.335Z,0
2016-12-06T04:49:53.399Z,0
2016-12-06T04:50:53.440Z,0
2016-12-06T04:51:53.525Z,0
2016-12-06T04:52:53.560Z,0
2016-12-06T04:53:53.630Z,0
2016-12-06T04:54:53.677Z,0
2016-12-06T04:55:53.722Z,0
2016-12-06T04:56:53.790Z,0
2016-12-06T04:57:53.854Z,0
2016-12-06T04:58:53.889Z,0
2016-12-06T04:59:53.949Z,0
2016-12-06T05:00:54.021Z,0
2016-12-06T05:01:54.080Z,0
2016-12-06T05:02:54.131Z,0
2016-12-06T05:03:54.184Z,0
2016-12-06T05:04:54.568Z,0
2016-12-06T05:05:54.300Z,0
2016-12-06T05:06:54.341Z,0
2016-12-06T05:07:54.401Z,0
2016-12-06T05:08:54.486Z,0
2016-12-06T05:09:54.533Z,0
2016-12-06T05:10:54.590Z,0
2016-12-06T05:11:54.652Z,0
2016-12-06T05:12:54.703Z,0
2016-12-06T05:13:54.745Z,0
2016-12-06T05:14:54.823Z,0
2016-12-06T05:15:54.856Z,0
2016-12-06T05:16:54.943Z,0
2016-12-06T05:17:54.983Z,0
2016-12-06T05:18:55.037Z,0
2016-12-06T05:19:55.068Z,0
2016-12-06T05:20:55.144Z,0
2016-12-06T05:21:55.203Z,0
2016-12-06T05:22:55.271Z,0
2016-12-06T05:23:55.333Z,0
2016-12-06T05:24:55.363Z,0
2016-12-06T05:25:55.416Z,0
2016-12-06T05:26:55.487Z,0
2016-12-06T05:27:55.553Z,0
2016-12-06T05:28:55.600Z,0
2016-12-06T05:29:55.629Z,0
2016-12-06T05:30:55.706Z,0
2016-12-06T05:31:55.742Z,0
2016-12-06T05:32:55.803Z,0
2016-12-06T05:33:55.866Z,0
2016-12-06T05:34:55.943Z,0
2016-12-06T05:35:56.307Z,0
2016-12-06T05:36:56.047Z,0
2016-12-06T05:37:56.084Z,0
2016-12-06T05:38:56.154Z,0
2016-12-06T05:39:56.202Z,0
2016-12-06T05:40:56.260Z,0
2016-12-06T05:41:56.317Z,0
2016-12-06T05:42:56.392Z,0
2016-12-06T05:43:56.742Z,0
2016-12-06T05:44:56.484Z,0
2016-12-06T05:45:56.554Z,0
2016-12-06T05:46:56.616Z,0
2016-12-06T05:47:56.644Z,0
2016-12-06T05:48:56.709Z,0
2016-12-06T05:49:56.756Z,0
2016-12-06T05:50:56.842Z,0
2016-12-06T05:51:56.881Z,0
2016-12-06T05:52:56.938Z,0
2016-12-06T05:53:57.008Z,0
2016-12-06T05:54:57.028Z,0
2016-12-06T05:55:57.086Z,0
2016-12-06T05:56:57.147Z,0
2016-12-06T05:57:57.222Z,0
2016-12-06T05:58:57.274Z,0
2016-12-06T05:59:57.333Z,0
2016-12-06T06:00:57.394Z,0
2016-12-06T06:01:57.422Z,0
2016-12-06T06:02:57.498Z,0
2016-12-06T06:03:57.574Z,0
2016-12-06T06:04:57.588Z,0
2016-12-06T06:05:57.646Z,0
2016-12-06T06:06:57.711Z,0
2016-12-06T06:07:57.791Z,0
2016-12-06T06:08:57.836Z,0
2016-12-06T06:09:57.867Z,0
2016-12-06T06:10:57.931Z,0
2016-12-06T06:11:57.983Z,0
2016-12-06T06:12:58.074Z,0
2016-12-06T06:13:58.106Z,0
2016-12-06T06:14:58.161Z,0
2016-12-06T06:15:58.209Z,0
2016-12-06T06:16:58.298Z,0
2016-12-06T06:17:58.337Z,0
2016-12-06T06:18:58.381Z,0
2016-12-06T06:19:58.435Z,0
2016-12-06T06:20:58.513Z,0
2016-12-06T06:21:58.555Z,0
2016-12-06T06:22:58.630Z,0
2016-12-06T06:23:58.676Z,4
2016-12-06T06:24:58.714Z,4
2016-12-06T06:25:58.771Z,0
2016-12-06T06:26:58.819Z,0
2016-12-06T06:27:58.889Z,4
2016-12-06T06:28:58.940Z,4
2016-12-06T06:29:59.009Z,4
2016-12-06T06:30:59.063Z,4
2016-12-06T06:31:59.127Z,4
2016-12-06T06:32:59.192Z,8
2016-12-06T06:33:59.221Z,4
2016-12-06T06:34:59.282Z,8
2016-12-06T06:35:59.337Z,8
2016-12-06T06:36:59.408Z,8
2016-12-06T06:37:59.444Z,12
2016-12-06T06:38:59.489Z,12
2016-12-06T06:39:59.549Z,12
2016-12-06T06:40:59.638Z,12
2016-12-06T06:41:59.680Z,16
2016-12-06T06:42:59.712Z,16
2016-12-06T06:43:59.791Z,20
2016-12-06T06:44:59.863Z,20
2016-12-06T06:45:59.912Z,24
2016-12-06T06:46:59.962Z,28
2016-12-06T06:48:00.029Z,28
2016-12-06T06:49:00.072Z,32
2016-12-06T06:50:00.108Z,32
2016-12-06T06:51:00.162Z,36
2016-12-06T06:52:00.558Z,44
2016-12-06T06:53:00.326Z,64
2016-12-06T06:54:00.345Z,72
2016-12-06T06:55:00.420Z,84
2016-12-06T06:56:00.464Z,92
2016-12-06T06:57:00.531Z,96
2016-12-06T06:58:00.565Z,104
2016-12-06T06:59:00.623Z,112
2016-12-06T07:00:00.679Z,120
2016-12-06T07:01:00.748Z,128
2016-12-06T07:02:00.793Z,140
2016-12-06T07:03:00.848Z,144
2016-12-06T07:04:00.929Z,148
2016-12-06T07:05:00.965Z,156
2016-12-06T07:06:01.032Z,160
2016-12-06T07:07:01.090Z,172
2016-12-06T07:08:01.120Z,188
2016-12-06T07:09:01.200Z,200
2016-12-06T07:10:01.240Z,220
2016-12-06T07:11:01.302Z,232
2016-12-06T07:12:01.360Z,240
2016-12-06T07:13:01.411Z,252
2016-12-06T07:14:01.462Z,260
2016-12-06T07:15:01.526Z,272
2016-12-06T07:16:01.560Z,280
2016-12-06T07:17:01.635Z,292
2016-12-06T07:18:01.692Z,300
2016-12-06T07:19:01.741Z,308
2016-12-06T07:20:01.800Z,316
2016-12-06T07:21:01.839Z,328
2016-12-06T07:22:01.916Z,336
2016-12-06T07:23:01.973Z,348
2016-12-06T07:24:02.018Z,356
2016-12-06T07:25:02.083Z,364
2016-12-06T07:26:02.150Z,376
2016-12-06T07:27:02.181Z,384
2016-12-06T07:28:02.279Z,392
2016-12-06T07:29:02.310Z,404
2016-12-06T07:30:02.371Z,412
2016-12-06T07:31:02.400Z,424
2016-12-06T07:32:02.466Z,432
2016-12-06T07:33:02.524Z,440
2016-12-06T07:34:02.596Z,452
2016-12-06T07:35:02.652Z,460
2016-12-06T07:36:03.025Z,472
2016-12-06T07:37:02.760Z,480
2016-12-06T07:38:02.819Z,488
2016-12-06T07:39:02.862Z,496
2016-12-06T07:40:02.907Z,504
2016-12-06T07:41:02.988Z,508
2016-12-06T07:42:03.326Z,516
2016-12-06T07:43:03.087Z,524
2016-12-06T07:44:03.142Z,532
2016-12-06T07:45:03.212Z,540
2016-12-06T07:46:03.256Z,548
2016-12-06T07:47:03.315Z,552
2016-12-06T07:48:03.355Z,560
2016-12-06T07:49:03.413Z,568
2016-12-06T07:50:03.485Z,576
2016-12-06T07:51:03.553Z,580
2016-12-06T07:52:03.598Z,580
2016-12-06T07:53:03.674Z,584
2016-12-06T07:54:03.725Z,588
2016-12-06T07:55:03.752Z,588
2016-12-06T07:56:03.817Z,592
2016-12-06T07:57:03.864Z,600
2016-12-06T07:58:03.927Z,608
2016-12-06T07:59:03.992Z,616
2016-12-06T08:00:04.045Z,628
2016-12-06T08:01:04.080Z,632
2016-12-06T08:02:04.160Z,636
2016-12-06T08:03:04.225Z,636
2016-12-06T08:04:04.251Z,636
2016-12-06T08:05:04.321Z,644
2016-12-06T08:06:04.383Z,652
2016-12-06T08:07:04.426Z,664
2016-12-06T08:08:04.488Z,672
2016-12-06T08:09:04.548Z,676
2016-12-06T08:10:04.911Z,684
2016-12-06T08:11:04.672Z,692
2016-12-06T08:12:04.714Z,696
2016-12-06T08:13:04.765Z,708
2016-12-06T08:14:04.837Z,720
2016-12-06T08:15:04.883Z,724
2016-12-06T08:16:04.937Z,732
2016-12-06T08:17:04.981Z,740
2016-12-06T08:18:05.057Z,748
2016-12-06T08:19:05.128Z,752
2016-12-06T08:20:05.184Z,764
2016-12-06T08:21:05.209Z,772
2016-12-06T08:22:05.277Z,780
2016-12-06T08:23:05.341Z,788
2016-12-06T08:24:05.376Z,792
2016-12-06T08:25:05.447Z,800
2016-12-06T08:26:05.508Z,804
2016-12-06T08:27:05.547Z,808
2016-12-06T08:28:05.605Z,812
2016-12-06T08:29:05.681Z,812
2016-12-06T08:30:05.726Z,816
2016-12-06T08:31:05.806Z,816
2016-12-06T08:32:05.839Z,824
2016-12-06T08:33:05.902Z,828
2016-12-06T08:34:05.960Z,832
2016-12-06T08:35:05.994Z,832
2016-12-06T08:36:06.059Z,836
2016-12-06T08:37:06.132Z,840
2016-12-06T08:38:06.184Z,844
2016-12-06T08:39:06.236Z,848
2016-12-06T08:40:06.601Z,848
2016-12-06T08:41:06.362Z,852
2016-12-06T08:42:06.409Z,856
2016-12-06T08:43:06.452Z,860
2016-12-06T08:44:06.510Z,860
2016-12-06T08:45:06.601Z,868
2016-12-06T08:46:06.645Z,868
2016-12-06T08:47:06.689Z,868
2016-12-06T08:48:06.735Z,872
2016-12-06T08:49:06.795Z,872
2016-12-06T08:50:06.845Z,876
2016-12-06T08:51:06.915Z,880
2016-12-06T08:52:06.969Z,880
2016-12-06T08:53:07.015Z,888
2016-12-06T08:54:07.104Z,892
2016-12-06T08:55:07.147Z,896
2016-12-06T08:56:07.198Z,900
2016-12-06T08:57:07.250Z,908
2016-12-06T08:58:07.324Z,908
2016-12-06T08:59:07.395Z,916
2016-12-06T09:00:07.428Z,920
2016-12-06T09:01:07.489Z,924
2016-12-06T09:02:07.548Z,928
2016-12-06T09:03:07.586Z,932
2016-12-06T09:04:07.661Z,932
2016-12-06T09:05:07.711Z,932
2016-12-06T09:06:07.758Z,936
2016-12-06T09:07:07.865Z,936
2016-12-06T09:08:07.900Z,940
2016-12-06T09:09:07.941Z,940
2016-12-06T09:10:07.994Z,936
2016-12-06T09:11:08.059Z,936
2016-12-06T09:12:08.100Z,936
2016-12-06T09:13:08.164Z,940
2016-12-06T09:14:08.229Z,940
2016-12-06T09:15:08.263Z,940
2016-12-06T09:16:08.346Z,944
2016-12-06T09:17:08.400Z,940
2016-12-06T09:18:08.454Z,940
2016-12-06T09:19:08.518Z,944
2016-12-06T09:20:08.581Z,948
2016-12-06T09:21:08.627Z,952
2016-12-06T09:22:08.659Z,956
2016-12-06T09:23:08.739Z,964
2016-12-06T09:24:08.797Z,964
2016-12-06T09:25:08.847Z,972
2016-12-06T09:26:08.907Z,972
2016-12-06T09:27:08.960Z,980
2016-12-06T09:28:09.021Z,984
2016-12-06T09:29:09.078Z,988
2016-12-06T09:30:09.121Z,992
2016-12-06T09:31:09.187Z,1004
2016-12-06T09:32:09.240Z,1004
2016-12-06T09:33:09.304Z,1008
2016-12-06T09:34:09.370Z,1012
2016-12-06T09:35:09.418Z,1020
2016-12-06T09:36:09.474Z,1024
2016-12-06T09:37:09.524Z,1028
2016-12-06T09:38:09.583Z,1036
2016-12-06T09:39:09.667Z,1040
2016-12-06T09:40:09.695Z,1052
2016-12-06T09:41:09.767Z,1056
2016-12-06T09:42:09.800Z,1064
2016-12-06T09:43:09.874Z,1072
2016-12-06T09:44:09.925Z,1084
2016-12-06T09:45:09.969Z,1096
2016-12-06T09:46:10.056Z,1108
2016-12-06T09:47:10.100Z,1116
2016-12-06T09:48:10.179Z,1120
2016-12-06T09:49:10.210Z,1124
2016-12-06T09:50:10.275Z,1128
2016-12-06T09:51:10.328Z,1136
2016-12-06T09:52:10.390Z,1140
2016-12-06T09:53:10.429Z,1144
2016-12-06T09:54:10.512Z,1152
2016-12-06T09:55:10.570Z,1156
2016-12-06T09:56:10.631Z,1164
2016-12-06T09:57:10.688Z,1172
2016-12-06T09:58:10.727Z,1180
2016-12-06T09:59:10.781Z,1184
2016-12-06T10:00:11.040Z,1192
2016-12-06T10:01:11.095Z,1196
2016-12-06T10:02:10.951Z,1200
2016-12-06T10:03:10.993Z,1204
2016-12-06T10:04:11.066Z,1212
2016-12-06T10:05:11.119Z,1216
2016-12-06T10:06:11.184Z,1224
2016-12-06T10:07:11.218Z,1228
2016-12-06T10:08:11.291Z,1232
2016-12-06T10:09:11.369Z,1240
2016-12-06T10:10:11.410Z,1244
2016-12-06T10:11:11.461Z,1244
2016-12-06T10:12:11.527Z,1252
2016-12-06T10:13:11.577Z,1256
2016-12-06T10:14:11.654Z,1264
2016-12-06T10:15:11.697Z,1268
2016-12-06T10:16:11.749Z,1272
2016-12-06T10:17:11.809Z,1276
2016-12-06T10:18:11.868Z,1280
2016-12-06T10:19:11.924Z,1284
2016-12-06T10:20:11.994Z,1288
2016-12-06T10:21:12.056Z,1292
2016-12-06T10:22:12.087Z,1292
2016-12-06T10:23:12.145Z,1300
2016-12-06T10:24:12.217Z,1300
2016-12-06T10:25:12.280Z,1304
2016-12-06T10:26:12.324Z,1308
2016-12-06T10:27:12.374Z,1308
2016-12-06T10:28:12.437Z,1312
2016-12-06T10:29:12.496Z,1316
2016-12-06T10:30:12.762Z,1320
2016-12-06T10:31:12.619Z,1320
2016-12-06T10:32:12.681Z,1320
2016-12-06T10:33:12.705Z,1320
2016-12-06T10:35:12.835Z,1328
2016-12-06T10:36:12.910Z,1332
2016-12-06T10:37:13.241Z,1336
2016-12-06T10:38:13.016Z,1336
2016-12-06T10:39:13.100Z,1336
2016-12-06T10:40:13.130Z,1340
2016-12-06T10:41:13.178Z,1340
2016-12-06T10:42:13.230Z,1340
2016-12-06T10:43:13.278Z,1340
2016-12-06T10:44:13.354Z,1340
2016-12-06T10:45:13.413Z,1344
2016-12-06T10:46:13.486Z,1348
2016-12-06T10:47:13.511Z,1348
2016-12-06T10:48:13.578Z,1344
2016-12-06T10:49:13.643Z,1344
2016-12-06T10:50:13.698Z,1344
2016-12-06T10:51:13.744Z,1340
2016-12-06T10:52:13.806Z,1344
2016-12-06T10:53:13.864Z,1340
2016-12-06T10:54:13.917Z,1340
2016-12-06T10:55:13.972Z,1344
2016-12-06T10:56:14.044Z,1344
2016-12-06T10:57:14.087Z,1344
2016-12-06T10:58:14.141Z,1348
2016-12-06T10:59:14.215Z,1352
2016-12-06T11:00:14.272Z,1352
2016-12-06T11:01:14.304Z,1356
2016-12-06T11:02:14.588Z,1352
2016-12-06T11:03:14.442Z,1352
2016-12-06T11:04:14.493Z,1352
2016-12-06T11:05:14.550Z,1356
2016-12-06T11:06:14.611Z,1364
2016-12-06T11:07:14.680Z,1364
2016-12-06T11:08:15.044Z,1372
2016-12-06T11:09:14.772Z,1376
2016-12-06T11:10:14.823Z,1384
2016-12-06T11:11:14.915Z,1384
2016-12-06T11:12:14.967Z,1392
2016-12-06T11:13:15.016Z,1400
2016-12-06T11:14:15.058Z,1408
2016-12-06T11:15:15.106Z,1416
2016-12-06T11:16:15.164Z,1420
2016-12-06T11:17:15.248Z,1428
2016-12-06T11:18:15.315Z,1432
2016-12-06T11:19:15.334Z,1436
2016-12-06T11:20:15.456Z,1440
2016-12-06T11:21:15.459Z,1444
2016-12-06T11:22:15.527Z,1456
2016-12-06T11:23:15.580Z,1464
2016-12-06T11:24:15.642Z,1468
2016-12-06T11:25:15.677Z,1472
2016-12-06T11:26:15.742Z,1480
2016-12-06T11:27:15.809Z,1484
2016-12-06T11:28:15.854Z,1492
2016-12-06T11:29:15.926Z,1504
2016-12-06T11:30:15.986Z,1508
2016-12-06T11:31:16.047Z,1516
2016-12-06T11:32:16.305Z,1520
2016-12-06T11:33:16.353Z,1528
2016-12-06T11:34:16.230Z,1532
2016-12-06T11:35:16.269Z,1536
2016-12-06T11:36:16.323Z,1544
2016-12-06T11:37:16.367Z,1548
2016-12-06T11:38:16.449Z,1556
2016-12-06T11:39:16.498Z,1560
2016-12-06T11:40:16.555Z,1568
2016-12-06T11:41:16.606Z,1576
2016-12-06T11:42:16.671Z,1584
2016-12-06T11:43:16.706Z,1592
2016-12-06T11:44:16.769Z,1596
2016-12-06T11:45:16.832Z,1604
2016-12-06T11:46:16.911Z,1612
2016-12-06T11:47:16.946Z,1620
2016-12-06T11:48:16.998Z,1624
2016-12-06T11:49:17.067Z,1632
2016-12-06T11:50:17.137Z,1640
2016-12-06T11:51:17.167Z,1648
2016-12-06T11:52:17.236Z,1656
2016-12-06T11:53:17.302Z,1664
2016-12-06T11:54:17.357Z,1672
2016-12-06T11:55:17.412Z,1680
2016-12-06T11:56:17.762Z,1684
2016-12-06T11:57:17.537Z,1692
2016-12-06T11:58:17.575Z,1700
2016-12-06T11:59:17.618Z,1708
2016-12-06T12:00:17.682Z,1712
2016-12-06T12:01:17.743Z,1720
2016-12-06T12:02:17.790Z,1728
2016-12-06T12:03:18.069Z,1732
2016-12-06T12:04:17.917Z,1740
2016-12-06T12:05:17.972Z,1748
2016-12-06T12:06:18.019Z,1752
2016-12-06T12:07:18.088Z,1756
2016-12-06T12:08:18.130Z,1756
2016-12-06T12:09:18.182Z,1764
2016-12-06T12:10:18.254Z,1764
2016-12-06T12:11:18.317Z,1768
2016-12-06T12:12:18.685Z,1772
2016-12-06T12:13:18.421Z,1772
2016-12-06T12:14:18.473Z,1776
2016-12-06T12:15:18.544Z,1780
2016-12-06T12:16:18.607Z,1784
2016-12-06T12:17:18.653Z,1788
2016-12-06T12:18:18.708Z,1788
2016-12-06T12:19:18.778Z,1792
2016-12-06T12:20:18.835Z,1796
2016-12-06T12:21:18.892Z,1796
2016-12-06T12:22:19.128Z,1800
2016-12-06T12:23:18.994Z,1804
2016-12-06T12:24:19.056Z,1804
2016-12-06T12:25:19.127Z,1808
2016-12-06T12:26:19.186Z,1812
2016-12-06T12:27:19.242Z,1812
2016-12-06T12:28:19.293Z,1816
2016-12-06T12:29:19.337Z,1816
2016-12-06T12:30:19.402Z,1816
2016-12-06T12:31:19.455Z,1824
2016-12-06T12:32:19.717Z,1820
2016-12-06T12:33:19.782Z,1820
2016-12-06T12:34:19.833Z,1824
2016-12-06T12:35:19.878Z,1824
2016-12-06T12:36:19.747Z,1820
2016-12-06T12:37:19.789Z,1812
2016-12-06T12:38:19.862Z,1804
2016-12-06T12:39:19.950Z,1796
2016-12-06T12:40:19.990Z,1788
2016-12-06T12:41:20.033Z,1772
2016-12-06T12:42:20.093Z,1764
2016-12-06T12:43:20.150Z,1756
2016-12-06T12:44:20.203Z,1744
2016-12-06T12:45:20.267Z,1732
2016-12-06T12:46:20.298Z,1720
2016-12-06T12:47:20.389Z,1708
2016-12-06T12:48:20.413Z,1696
2016-12-06T12:49:20.497Z,1688
2016-12-06T12:50:20.558Z,1676
2016-12-06T12:51:20.602Z,1664
2016-12-06T12:52:20.651Z,1652
2016-12-06T12:53:20.724Z,1640
2016-12-06T12:54:20.760Z,1628
2016-12-06T12:55:20.834Z,1616
2016-12-06T12:56:20.881Z,1600
2016-12-06T12:57:20.946Z,1592
2016-12-06T12:58:21.003Z,1580
2016-12-06T12:59:21.047Z,1572
2016-12-06T13:00:21.108Z,1564
2016-12-06T13:01:21.177Z,1556
2016-12-06T13:02:21.458Z,1548
2016-12-06T13:03:21.524Z,1536
2016-12-06T13:04:21.367Z,1524
2016-12-06T13:05:21.421Z,1516
2016-12-06T13:06:21.448Z,1500
2016-12-06T13:07:21.541Z,1488
2016-12-06T13:08:21.734Z,1476
2016-12-06T13:09:21.958Z,1468
2016-12-06T13:10:21.714Z,1456
2016-12-06T13:11:21.759Z,1448
2016-12-06T13:12:21.827Z,1436
2016-12-06T13:13:21.859Z,1428
2016-12-06T13:14:21.930Z,1416
2016-12-06T13:15:21.987Z,1408
2016-12-06T13:16:22.024Z,1396
2016-12-06T13:17:22.116Z,1388
2016-12-06T13:18:22.152Z,1376
2016-12-06T13:19:22.215Z,1368
2016-12-06T13:20:22.252Z,1356
2016-12-06T13:21:22.310Z,1348
2016-12-06T13:22:22.398Z,1336
2016-12-06T13:23:22.446Z,1324
2016-12-06T13:24:22.498Z,1312
2016-12-06T13:25:22.564Z,1304
2016-12-06T13:26:22.637Z,1296
2016-12-06T13:27:22.664Z,1288
2016-12-06T13:28:22.740Z,1276
2016-12-06T13:29:22.798Z,1264
2016-12-06T13:30:22.850Z,1260
2016-12-06T13:31:22.909Z,1248
2016-12-06T13:32:22.969Z,1240
2016-12-06T13:33:23.036Z,1232
2016-12-06T13:34:23.077Z,1224
2016-12-06T13:35:23.139Z,1220
2016-12-06T13:36:23.182Z,1212
2016-12-06T13:37:23.270Z,1204
2016-12-06T13:38:23.604Z,1200
2016-12-06T13:39:23.369Z,1196
2016-12-06T13:40:23.436Z,1188
2016-12-06T13:41:23.485Z,1184
2016-12-06T13:42:23.543Z,1176
2016-12-06T13:43:23.595Z,1176
2016-12-06T13:44:23.659Z,1168
2016-12-06T13:45:23.704Z,1164
2016-12-06T13:46:23.791Z,1160
2016-12-06T13:47:23.848Z,1152
2016-12-06T13:48:23.874Z,1148
2016-12-06T13:49:23.940Z,1144
2016-12-06T13:50:24.005Z,1140
2016-12-06T13:51:24.062Z,1128
2016-12-06T13:52:24.125Z,1124
2016-12-06T13:53:24.177Z,1108
2016-12-06T13:54:24.238Z,1104
2016-12-06T13:55:24.287Z,1084
2016-12-06T13:56:24.353Z,952
2016-12-06T13:57:24.388Z,736
2016-12-06T13:58:24.459Z,516
2016-12-06T13:59:24.501Z,332
2016-12-06T14:00:24.594Z,280
2016-12-06T14:01:24.640Z,276
2016-12-06T14:02:24.694Z,272
2016-12-06T14:03:24.738Z,268
2016-12-06T14:04:24.811Z,268
2016-12-06T14:05:25.181Z,268
2016-12-06T14:06:24.923Z,264
2016-12-06T14:07:24.983Z,264